Terminal Aerodrome Forecast
Issued by NWS

Home | Current Version | Previous Version | Text Only | Print | Product List | Glossary On
Versions: 1 2 3 4 5 6 7 8 9 10 11 12 13 14 15 16 17 18 19 20 21 22 23 24 25 26 27 28 29 30 31 32
000
FTUS43 KGRB 131700
TAFRHI
TAF
KRHI 131740Z 1318/1418 32007KT P6SM BKN050
     FM132300 24005KT P6SM SCT050 SCT250
     FM140200 VRB03KT P6SM BKN250
     FM140900 19004KT P6SM FEW050 BKN250
     FM141500 21009KT P6SM BKN090=

USA.gov is the U.S. government's official web portal to all federal, state and local government web resources and services.